TAP23EB LPPR-LPPT
Flight info
| Callsign | TAP23EB |
|---|---|
| Flight time | 0h 39m |
| Altitude | 33000 |
| Route | MANIK DCT ABRIL DCT XAMAX |
| Aircraft | A21N/M-SDE2E3FGHIRWXY/LB1 |
Departure
| Time | 2026-05-06 19:55 |
|---|---|
| Airport | Francisco de Sá Carneiro Airport (LPPR) |
Arrival
| Time | 2026-05-06 20:34 |
|---|---|
| Airport | Lisbon Humberto Delgado Airport (LPPT) |
| Time | Latitude | Longitude | Altitude | Speed | Heading |
|---|---|---|---|---|---|
| 2026-05-06 19:32 | 41.23686 | -8.67258 | 238 ft | 0 kts | 78° |
| 2026-05-06 19:44 | 41.23683 | -8.67281 | 238 ft | 4 kts | 88° |
| 2026-05-06 19:44 | 41.23685 | -8.67316 | 238 ft | 4 kts | 105° |
| 2026-05-06 19:44 | 41.23694 | -8.67349 | 238 ft | 4 kts | 122° |
| 2026-05-06 19:44 | 41.23710 | -8.67378 | 238 ft | 4 kts | 131° |
| 2026-05-06 19:45 | 41.23723 | -8.67397 | 238 ft | 0 kts | 126° |
| 2026-05-06 19:49 | 41.23722 | -8.67397 | 238 ft | 0 kts | 126° |
| 2026-05-06 19:50 | 41.23719 | -8.67390 | 238 ft | 1 kts | 126° |
| 2026-05-06 19:50 | 41.23712 | -8.67377 | 238 ft | 2 kts | 126° |
| 2026-05-06 19:50 | 41.23697 | -8.67356 | 238 ft | 6 kts | 143° |
| 2026-05-06 19:50 | 41.23636 | -8.67330 | 238 ft | 13 kts | 165° |
| 2026-05-06 19:51 | 41.23580 | -8.67333 | 238 ft | 6 kts | 213° |
| 2026-05-06 19:51 | 41.23523 | -8.67381 | 238 ft | 10 kts | 201° |
| 2026-05-06 19:51 | 41.23455 | -8.67377 | 238 ft | 12 kts | 171° |
| 2026-05-06 19:51 | 41.23371 | -8.67367 | 238 ft | 11 kts | 202° |
| 2026-05-06 19:52 | 41.23329 | -8.67453 | 238 ft | 13 kts | 260° |
| 2026-05-06 19:52 | 41.23313 | -8.67571 | 238 ft | 4 kts | 258° |
| 2026-05-06 19:52 | 41.23311 | -8.67584 | 238 ft | 0 kts | 258° |
| 2026-05-06 19:53 | 41.23308 | -8.67599 | 238 ft | 5 kts | 258° |
| 2026-05-06 19:53 | 41.23297 | -8.67671 | 238 ft | 11 kts | 258° |
| 2026-05-06 19:53 | 41.23324 | -8.67734 | 239 ft | 8 kts | 344° |
| 2026-05-06 19:54 | 41.23378 | -8.67748 | 240 ft | 12 kts | 349° |
| 2026-05-06 19:54 | 41.23635 | -8.67816 | 238 ft | 68 kts | 348° |
| 2026-05-06 19:54 | 41.24324 | -8.67996 | 240 ft | 134 kts | 348° |
| 2026-05-06 19:54 | 41.25393 | -8.68271 | 364 ft | 171 kts | 348° |
| 2026-05-06 19:55 | 41.26538 | -8.68570 | 1071 ft | 164 kts | 348° |
| 2026-05-06 19:55 | 41.27649 | -8.68859 | 1856 ft | 163 kts | 349° |
| 2026-05-06 19:55 | 41.28834 | -8.69164 | 2231 ft | 185 kts | 348° |
| 2026-05-06 19:55 | 41.30211 | -8.69530 | 2482 ft | 220 kts | 348° |
| 2026-05-06 19:56 | 41.31802 | -8.69952 | 2954 ft | 243 kts | 349° |
| 2026-05-06 19:56 | 41.33500 | -8.70401 | 3732 ft | 252 kts | 349° |
| 2026-05-06 19:56 | 41.35248 | -8.70861 | 4630 ft | 260 kts | 349° |
| 2026-05-06 19:56 | 41.37028 | -8.71329 | 5505 ft | 268 kts | 349° |
| 2026-05-06 19:57 | 41.38860 | -8.71896 | 6432 ft | 272 kts | 340° |
| 2026-05-06 19:57 | 41.40503 | -8.73153 | 7247 ft | 278 kts | 315° |
| 2026-05-06 19:57 | 41.41629 | -8.75257 | 8061 ft | 282 kts | 297° |
| 2026-05-06 19:57 | 41.42420 | -8.77665 | 8863 ft | 286 kts | 281° |
| 2026-05-06 19:58 | 41.42517 | -8.80276 | 9754 ft | 282 kts | 256° |
| 2026-05-06 19:58 | 41.41726 | -8.82672 | 10392 ft | 290 kts | 229° |
| 2026-05-06 19:58 | 41.40085 | -8.84294 | 10743 ft | 306 kts | 198° |
| 2026-05-06 19:58 | 41.37935 | -8.84478 | 11173 ft | 323 kts | 167° |
| 2026-05-06 19:59 | 41.35901 | -8.83063 | 11594 ft | 343 kts | 145° |
| 2026-05-06 19:59 | 41.33769 | -8.81509 | 11898 ft | 359 kts | 164° |
| 2026-05-06 19:59 | 41.31264 | -8.80966 | 12416 ft | 371 kts | 174° |
| 2026-05-06 19:59 | 41.28681 | -8.80576 | 13117 ft | 377 kts | 173° |
| 2026-05-06 20:00 | 41.26048 | -8.80154 | 13798 ft | 384 kts | 178° |
| 2026-05-06 20:00 | 41.23409 | -8.80355 | 14469 ft | 387 kts | 188° |
| 2026-05-06 20:00 | 41.20753 | -8.80976 | 15233 ft | 387 kts | 192° |
| 2026-05-06 20:00 | 41.18098 | -8.81710 | 15951 ft | 391 kts | 193° |
| 2026-05-06 20:01 | 41.15425 | -8.82482 | 16582 ft | 396 kts | 193° |
| 2026-05-06 20:01 | 41.12723 | -8.83273 | 17311 ft | 398 kts | 193° |
| 2026-05-06 20:01 | 41.10020 | -8.84068 | 18080 ft | 399 kts | 193° |
| 2026-05-06 20:01 | 41.07293 | -8.84872 | 18616 ft | 403 kts | 193° |
| 2026-05-06 20:02 | 41.04533 | -8.85686 | 19120 ft | 407 kts | 193° |
| 2026-05-06 20:02 | 41.01765 | -8.86501 | 19798 ft | 406 kts | 193° |
| 2026-05-06 20:02 | 40.98993 | -8.87318 | 20362 ft | 409 kts | 193° |
| 2026-05-06 20:02 | 40.96201 | -8.88140 | 20874 ft | 414 kts | 193° |
| 2026-05-06 20:03 | 40.93385 | -8.88969 | 21457 ft | 415 kts | 193° |
| 2026-05-06 20:03 | 40.90607 | -8.89785 | 22146 ft | 414 kts | 193° |
| 2026-05-06 20:03 | 40.87772 | -8.90618 | 22568 ft | 421 kts | 193° |
| 2026-05-06 20:03 | 40.84890 | -8.91464 | 22870 ft | 426 kts | 193° |
| 2026-05-06 20:04 | 40.82004 | -8.92309 | 22952 ft | 424 kts | 193° |
| 2026-05-06 20:04 | 40.79121 | -8.93153 | 22952 ft | 424 kts | 193° |
| 2026-05-06 20:04 | 40.76237 | -8.93997 | 22958 ft | 425 kts | 193° |
| 2026-05-06 20:04 | 40.73341 | -8.94843 | 22963 ft | 424 kts | 193° |
| 2026-05-06 20:05 | 40.70463 | -8.95684 | 22963 ft | 423 kts | 193° |
| 2026-05-06 20:05 | 40.67582 | -8.96525 | 22963 ft | 424 kts | 193° |
| 2026-05-06 20:05 | 40.64700 | -8.97365 | 22963 ft | 424 kts | 193° |
| 2026-05-06 20:05 | 40.61823 | -8.98203 | 22961 ft | 423 kts | 193° |
| 2026-05-06 20:06 | 40.58946 | -8.99041 | 22964 ft | 424 kts | 193° |
| 2026-05-06 20:06 | 40.56062 | -8.99880 | 22964 ft | 424 kts | 193° |
| 2026-05-06 20:06 | 40.53173 | -9.00719 | 22962 ft | 424 kts | 193° |
| 2026-05-06 20:06 | 40.50292 | -9.01555 | 22963 ft | 425 kts | 193° |
| 2026-05-06 20:07 | 40.47398 | -9.02395 | 22963 ft | 426 kts | 193° |
| 2026-05-06 20:07 | 40.44508 | -9.03232 | 22962 ft | 425 kts | 193° |
| 2026-05-06 20:07 | 40.41620 | -9.04068 | 22964 ft | 425 kts | 193° |
| 2026-05-06 20:07 | 40.38758 | -9.04896 | 22962 ft | 425 kts | 193° |
| 2026-05-06 20:08 | 40.35870 | -9.05731 | 22967 ft | 425 kts | 193° |
| 2026-05-06 20:08 | 40.32978 | -9.06566 | 22962 ft | 425 kts | 193° |
| 2026-05-06 20:08 | 40.30089 | -9.07400 | 22964 ft | 425 kts | 193° |
| 2026-05-06 20:08 | 40.27192 | -9.08235 | 22963 ft | 426 kts | 193° |
| 2026-05-06 20:09 | 40.24300 | -9.09067 | 22982 ft | 425 kts | 193° |
| 2026-05-06 20:09 | 40.21414 | -9.09898 | 22968 ft | 424 kts | 193° |
| 2026-05-06 20:09 | 40.18530 | -9.10727 | 22971 ft | 424 kts | 193° |
| 2026-05-06 20:09 | 40.15650 | -9.11554 | 22970 ft | 423 kts | 193° |
| 2026-05-06 20:10 | 40.12817 | -9.12367 | 22972 ft | 422 kts | 193° |
| 2026-05-06 20:10 | 40.09945 | -9.13191 | 22969 ft | 423 kts | 193° |
| 2026-05-06 20:10 | 40.07066 | -9.14015 | 22971 ft | 423 kts | 193° |
| 2026-05-06 20:10 | 40.04198 | -9.14837 | 22971 ft | 422 kts | 193° |
| 2026-05-06 20:11 | 40.01326 | -9.15658 | 22971 ft | 423 kts | 193° |
| 2026-05-06 20:11 | 39.98450 | -9.16480 | 22968 ft | 423 kts | 193° |
| 2026-05-06 20:11 | 39.95573 | -9.17302 | 22968 ft | 422 kts | 193° |
| 2026-05-06 20:11 | 39.92697 | -9.18122 | 22968 ft | 422 kts | 193° |
| 2026-05-06 20:12 | 39.89822 | -9.18942 | 22968 ft | 423 kts | 193° |
| 2026-05-06 20:12 | 39.86974 | -9.19752 | 22965 ft | 422 kts | 193° |
| 2026-05-06 20:12 | 39.84108 | -9.20568 | 22970 ft | 422 kts | 193° |
| 2026-05-06 20:12 | 39.81223 | -9.21389 | 22970 ft | 423 kts | 193° |
| 2026-05-06 20:13 | 39.78343 | -9.22206 | 22970 ft | 423 kts | 193° |
| 2026-05-06 20:13 | 39.75476 | -9.23020 | 22970 ft | 422 kts | 193° |
| 2026-05-06 20:13 | 39.72603 | -9.23835 | 22971 ft | 423 kts | 193° |
| 2026-05-06 20:13 | 39.69723 | -9.24651 | 22971 ft | 423 kts | 193° |
| 2026-05-06 20:14 | 39.66846 | -9.25465 | 22974 ft | 422 kts | 193° |
| 2026-05-06 20:14 | 39.63974 | -9.26277 | 22973 ft | 423 kts | 193° |
| 2026-05-06 20:14 | 39.61095 | -9.27091 | 22973 ft | 424 kts | 193° |
| 2026-05-06 20:14 | 39.58207 | -9.27907 | 22973 ft | 424 kts | 193° |
| 2026-05-06 20:15 | 39.55323 | -9.28720 | 22976 ft | 424 kts | 193° |
| 2026-05-06 20:15 | 39.52442 | -9.29533 | 22978 ft | 424 kts | 193° |
| 2026-05-06 20:15 | 39.49586 | -9.30337 | 22977 ft | 424 kts | 193° |
| 2026-05-06 20:15 | 39.46705 | -9.31148 | 22978 ft | 423 kts | 193° |
| 2026-05-06 20:16 | 39.43829 | -9.31956 | 22976 ft | 424 kts | 193° |
| 2026-05-06 20:16 | 39.40942 | -9.32767 | 22973 ft | 424 kts | 193° |
| 2026-05-06 20:16 | 39.38053 | -9.33578 | 22963 ft | 424 kts | 193° |
| 2026-05-06 20:16 | 39.35128 | -9.34400 | 22734 ft | 435 kts | 193° |
| 2026-05-06 20:17 | 39.32155 | -9.35233 | 22425 ft | 437 kts | 193° |
| 2026-05-06 20:17 | 39.29207 | -9.36057 | 21805 ft | 428 kts | 193° |
| 2026-05-06 20:17 | 39.26318 | -9.36864 | 21109 ft | 422 kts | 193° |
| 2026-05-06 20:17 | 39.23474 | -9.37659 | 20428 ft | 416 kts | 193° |
| 2026-05-06 20:18 | 39.20700 | -9.38433 | 19758 ft | 410 kts | 193° |
| 2026-05-06 20:18 | 39.17928 | -9.39206 | 19074 ft | 406 kts | 193° |
| 2026-05-06 20:18 | 39.15167 | -9.39976 | 18392 ft | 402 kts | 193° |
| 2026-05-06 20:18 | 39.12444 | -9.40735 | 17642 ft | 399 kts | 193° |
| 2026-05-06 20:19 | 39.09745 | -9.41486 | 16973 ft | 393 kts | 193° |
| 2026-05-06 20:19 | 39.07088 | -9.42225 | 16314 ft | 388 kts | 193° |
| 2026-05-06 20:19 | 39.04491 | -9.42947 | 15655 ft | 384 kts | 194° |
| 2026-05-06 20:19 | 39.01883 | -9.43670 | 14983 ft | 381 kts | 194° |
| 2026-05-06 20:20 | 38.99292 | -9.44390 | 14313 ft | 379 kts | 193° |
| 2026-05-06 20:20 | 38.96722 | -9.45103 | 13640 ft | 376 kts | 193° |
| 2026-05-06 20:20 | 38.94168 | -9.45811 | 12946 ft | 374 kts | 193° |
| 2026-05-06 20:20 | 38.92487 | -9.46277 | 12526 ft | 373 kts | 194° |
| 2026-05-06 20:21 | 38.89960 | -9.46977 | 11860 ft | 370 kts | 193° |
| 2026-05-06 20:21 | 38.87449 | -9.47673 | 11218 ft | 368 kts | 193° |
| 2026-05-06 20:21 | 38.84960 | -9.48361 | 10742 ft | 360 kts | 193° |
| 2026-05-06 20:21 | 38.82584 | -9.49016 | 10659 ft | 339 kts | 193° |
| 2026-05-06 20:22 | 38.80345 | -9.49632 | 10594 ft | 320 kts | 193° |
| 2026-05-06 20:22 | 38.78226 | -9.50217 | 10474 ft | 303 kts | 193° |
| 2026-05-06 20:22 | 38.76210 | -9.50773 | 10336 ft | 290 kts | 193° |
| 2026-05-06 20:22 | 38.74275 | -9.51306 | 10205 ft | 279 kts | 193° |
| 2026-05-06 20:23 | 38.72433 | -9.51813 | 10076 ft | 269 kts | 193° |
| 2026-05-06 20:23 | 38.70617 | -9.52314 | 9971 ft | 267 kts | 193° |
| 2026-05-06 20:23 | 38.68789 | -9.52817 | 9609 ft | 269 kts | 192° |
| 2026-05-06 20:23 | 38.66964 | -9.53319 | 9213 ft | 267 kts | 193° |
| 2026-05-06 20:24 | 38.65153 | -9.53817 | 8880 ft | 265 kts | 192° |
| 2026-05-06 20:24 | 38.63353 | -9.54311 | 8566 ft | 264 kts | 193° |
| 2026-05-06 20:24 | 38.61556 | -9.54782 | 8251 ft | 264 kts | 188° |
| 2026-05-06 20:24 | 38.59738 | -9.54802 | 7925 ft | 260 kts | 171° |
| 2026-05-06 20:25 | 38.58064 | -9.54032 | 7601 ft | 255 kts | 147° |
| 2026-05-06 20:25 | 38.56838 | -9.52450 | 7297 ft | 250 kts | 120° |
| 2026-05-06 20:25 | 38.56360 | -9.50367 | 7028 ft | 244 kts | 90° |
| 2026-05-06 20:25 | 38.56481 | -9.48201 | 6790 ft | 245 kts | 82° |
| 2026-05-06 20:26 | 38.56726 | -9.46034 | 6546 ft | 246 kts | 81° |
| 2026-05-06 20:26 | 38.56985 | -9.43868 | 6297 ft | 247 kts | 82° |
| 2026-05-06 20:26 | 38.57238 | -9.41702 | 6072 ft | 241 kts | 82° |
| 2026-05-06 20:26 | 38.57470 | -9.39671 | 5920 ft | 228 kts | 81° |
| 2026-05-06 20:27 | 38.57697 | -9.37671 | 5668 ft | 228 kts | 81° |
| 2026-05-06 20:27 | 38.57923 | -9.35657 | 5364 ft | 228 kts | 81° |
| 2026-05-06 20:27 | 38.58144 | -9.33661 | 5040 ft | 225 kts | 80° |
| 2026-05-06 20:27 | 38.58362 | -9.31682 | 4705 ft | 225 kts | 80° |
| 2026-05-06 20:28 | 38.58577 | -9.29708 | 4396 ft | 224 kts | 78° |
| 2026-05-06 20:28 | 38.58793 | -9.27739 | 4103 ft | 223 kts | 78° |
| 2026-05-06 20:28 | 38.59016 | -9.25789 | 4023 ft | 220 kts | 75° |
| 2026-05-06 20:28 | 38.59703 | -9.24124 | 3962 ft | 210 kts | 43° |
| 2026-05-06 20:29 | 38.60797 | -9.22926 | 3772 ft | 203 kts | 28° |
| 2026-05-06 20:29 | 38.62019 | -9.22160 | 3519 ft | 190 kts | 18° |
| 2026-05-06 20:29 | 38.63208 | -9.21566 | 3253 ft | 182 kts | 18° |
| 2026-05-06 20:29 | 38.64356 | -9.20954 | 2991 ft | 175 kts | 19° |
| 2026-05-06 20:30 | 38.65436 | -9.20372 | 2771 ft | 163 kts | 18° |
| 2026-05-06 20:30 | 38.67402 | -9.19324 | 2338 ft | 146 kts | 18° |
| 2026-05-06 20:30 | 38.68342 | -9.18825 | 2129 ft | 147 kts | 18° |
| 2026-05-06 20:31 | 38.69263 | -9.18332 | 1941 ft | 138 kts | 17° |
| 2026-05-06 20:31 | 38.70128 | -9.17870 | 1751 ft | 133 kts | 17° |
| 2026-05-06 20:31 | 38.70985 | -9.17411 | 1555 ft | 132 kts | 17° |
| 2026-05-06 20:31 | 38.71837 | -9.16956 | 1415 ft | 134 kts | 17° |
| 2026-05-06 20:32 | 38.72692 | -9.16481 | 1212 ft | 134 kts | 18° |
| 2026-05-06 20:32 | 38.73548 | -9.16030 | 1044 ft | 134 kts | 18° |
| 2026-05-06 20:32 | 38.74399 | -9.15569 | 823 ft | 131 kts | 18° |
| 2026-05-06 20:32 | 38.75239 | -9.15126 | 681 ft | 133 kts | 16° |
| 2026-05-06 20:33 | 38.76091 | -9.14677 | 505 ft | 133 kts | 17° |
| 2026-05-06 20:33 | 38.76931 | -9.14226 | 356 ft | 127 kts | 15° |
| 2026-05-06 20:33 | 38.77606 | -9.13874 | 368 ft | 79 kts | 22° |
| 2026-05-06 20:33 | 38.77989 | -9.13669 | 370 ft | 52 kts | 22° |
| 2026-05-06 20:34 | 38.78292 | -9.13461 | 372 ft | 37 kts | 44° |
| 2026-05-06 20:34 | 38.78370 | -9.13346 | 369 ft | 13 kts | 67° |
| 2026-05-06 20:34 | 38.78372 | -9.13270 | 364 ft | 5 kts | 141° |
| 2026-05-06 20:34 | 38.78330 | -9.13263 | 368 ft | 8 kts | 185° |
| 2026-05-06 20:35 | 38.78276 | -9.13287 | 366 ft | 9 kts | 202° |
| 2026-05-06 20:35 | 38.78214 | -9.13320 | 365 ft | 10 kts | 202° |
| 2026-05-06 20:35 | 38.78145 | -9.13357 | 363 ft | 11 kts | 202° |
| 2026-05-06 20:35 | 38.78071 | -9.13397 | 366 ft | 12 kts | 202° |
| 2026-05-06 20:36 | 38.77977 | -9.13407 | 358 ft | 16 kts | 168° |
| 2026-05-06 20:36 | 38.77847 | -9.13371 | 351 ft | 22 kts | 167° |
| 2026-05-06 20:36 | 38.77684 | -9.13325 | 349 ft | 27 kts | 169° |
| 2026-05-06 20:36 | 38.77525 | -9.13304 | 337 ft | 13 kts | 168° |
| 2026-05-06 20:37 | 38.77420 | -9.13276 | 341 ft | 17 kts | 168° |
| 2026-05-06 20:37 | 38.77291 | -9.13253 | 341 ft | 19 kts | 169° |
| 2026-05-06 20:37 | 38.77156 | -9.13212 | 341 ft | 20 kts | 167° |
| 2026-05-06 20:37 | 38.77036 | -9.13181 | 341 ft | 13 kts | 168° |
| 2026-05-06 20:38 | 38.76945 | -9.13158 | 344 ft | 14 kts | 168° |
| 2026-05-06 20:38 | 38.76929 | -9.13137 | 335 ft | 4 kts | 104° |
| 2026-05-06 20:38 | 38.76932 | -9.13098 | 339 ft | 2 kts | 77° |
| 2026-05-06 20:38 | 38.76936 | -9.13074 | 337 ft | 0 kts | 78° |
| 2026-05-06 20:39 | 38.76936 | -9.13071 | 338 ft | 0 kts | 78° |